createdAt,value
2022-09-01T00:00:02.430Z,100.00
2022-09-01T00:02:32.031Z,100.00
2022-09-01T00:05:00.252Z,100.00
2022-09-01T00:07:32.750Z,100.00
2022-09-01T00:10:00.499Z,100.00
2022-09-01T00:12:29.880Z,100.00
2022-09-01T00:14:59.122Z,100.00
2022-09-01T00:17:27.078Z,100.00
2022-09-01T00:19:54.760Z,100.00
2022-09-01T00:22:21.876Z,100.00
2022-09-01T00:24:49.334Z,100.00
2022-09-01T00:27:16.732Z,100.00
2022-09-01T00:29:45.187Z,100.00
2022-09-01T00:32:12.886Z,100.00
2022-09-01T00:34:39.923Z,100.00
2022-09-01T00:37:07.924Z,100.00
2022-09-01T00:39:35.080Z,100.00
2022-09-01T00:42:02.369Z,100.00
2022-09-01T00:44:31.365Z,100.00
2022-09-01T00:47:01.248Z,100.00
2022-09-01T00:49:42.514Z,100.00
2022-09-01T00:52:19.314Z,100.00
2022-09-01T00:54:51.032Z,100.00
2022-09-01T00:57:18.679Z,100.00
2022-09-01T00:59:50.418Z,100.00
2022-09-01T01:02:17.933Z,100.00
2022-09-01T01:04:46.573Z,100.00
2022-09-01T01:07:15.353Z,100.00
2022-09-01T01:09:45.102Z,100.00
2022-09-01T01:12:14.372Z,100.00
2022-09-01T01:14:45.839Z,100.00
2022-09-01T01:17:13.370Z,100.00
2022-09-01T01:20:24.907Z,100.00
2022-09-01T01:23:31.123Z,100.00
2022-09-01T01:26:00.110Z,100.00
2022-09-01T01:28:33.231Z,100.00
2022-09-01T01:31:13.037Z,100.00
2022-09-01T01:33:49.045Z,100.00
2022-09-01T01:36:27.206Z,100.00
2022-09-01T01:38:56.277Z,100.00
2022-09-01T01:41:24.739Z,100.00
2022-09-01T01:43:52.806Z,100.00
2022-09-01T01:46:20.775Z,100.00
2022-09-01T01:48:52.629Z,100.00
2022-09-01T01:51:25.241Z,100.00
2022-09-01T01:53:53.043Z,100.00
2022-09-01T01:56:20.331Z,100.00
2022-09-01T01:58:47.553Z,100.00
2022-09-01T02:01:17.783Z,100.00
2022-09-01T02:03:44.874Z,100.00
2022-09-01T02:06:12.358Z,100.00
2022-09-01T02:08:41.072Z,100.00
2022-09-01T02:11:09.111Z,100.00
2022-09-01T02:13:36.378Z,100.00
2022-09-01T02:16:13.439Z,100.00
2022-09-01T02:18:44.652Z,100.00
2022-09-01T02:21:18.332Z,100.00
2022-09-01T02:23:49.075Z,100.00
2022-09-01T02:26:17.731Z,100.00
2022-09-01T02:28:54.698Z,100.00
2022-09-01T02:31:24.379Z,100.00
2022-09-01T02:33:51.456Z,100.00
2022-09-01T02:36:20.805Z,100.00
2022-09-01T02:38:49.447Z,100.00
2022-09-01T02:41:24.048Z,100.00
2022-09-01T02:43:51.516Z,100.00
2022-09-01T02:46:20.563Z,100.00
2022-09-01T02:48:49.769Z,100.00
2022-09-01T02:51:19.496Z,100.00
2022-09-01T02:53:52.380Z,100.00
2022-09-01T02:56:37.884Z,100.00
2022-09-01T03:02:51.892Z,100.00
2022-09-01T03:05:30.018Z,100.00
2022-09-01T03:08:03.913Z,100.00
2022-09-01T03:10:42.592Z,100.00
2022-09-01T03:13:16.782Z,100.00
2022-09-01T03:15:44.972Z,100.00
2022-09-01T03:18:14.559Z,100.00
2022-09-01T03:20:44.835Z,100.00
2022-09-01T03:23:15.232Z,100.00
2022-09-01T03:25:48.358Z,100.00
2022-09-01T03:28:16.662Z,100.00
2022-09-01T03:30:52.684Z,100.00
2022-09-01T03:33:23.228Z,100.00
2022-09-01T03:35:50.494Z,100.00
2022-09-01T03:38:21.268Z,100.00
2022-09-01T03:40:49.902Z,100.00
2022-09-01T03:43:19.261Z,100.00
2022-09-01T03:45:46.968Z,100.00
2022-09-01T03:48:16.619Z,100.00
2022-09-01T03:50:46.530Z,100.00
2022-09-01T03:53:17.291Z,100.00
2022-09-01T03:55:47.420Z,100.00
2022-09-01T03:58:21.488Z,100.00
2022-09-01T04:00:55.499Z,100.00
2022-09-01T04:03:32.053Z,100.00
2022-09-01T04:06:01.264Z,100.00
2022-09-01T04:08:32.943Z,100.00
2022-09-01T04:11:04.006Z,100.00
2022-09-01T04:13:39.872Z,100.00
2022-09-01T04:16:31.066Z,100.00
2022-09-01T04:19:00.587Z,100.00
2022-09-01T04:21:27.961Z,100.00
2022-09-01T04:23:58.070Z,100.00
2022-09-01T04:26:29.039Z,100.00
2022-09-01T04:28:56.298Z,100.00
2022-09-01T04:31:23.369Z,100.00
2022-09-01T04:33:55.973Z,100.00
2022-09-01T04:36:26.227Z,100.00
2022-09-01T04:39:00.932Z,100.00
2022-09-01T04:41:33.624Z,100.00
2022-09-01T04:44:05.487Z,100.00
2022-09-01T04:46:35.945Z,100.00
2022-09-01T04:49:13.283Z,100.00
2022-09-01T04:51:50.034Z,100.00
2022-09-01T04:54:21.521Z,100.00
2022-09-01T04:56:55.567Z,100.00
2022-09-01T04:59:27.377Z,100.00
2022-09-01T05:01:57.822Z,100.00
2022-09-01T05:04:28.212Z,100.00
2022-09-01T05:07:01.381Z,100.00
2022-09-01T05:09:36.205Z,100.00
2022-09-01T05:12:12.887Z,100.00
2022-09-01T05:14:48.956Z,100.00
2022-09-01T05:17:17.493Z,100.00
2022-09-01T05:19:47.975Z,100.00
2022-09-01T05:22:15.998Z,100.00
2022-09-01T05:24:43.047Z,100.00
2022-09-01T05:27:10.874Z,100.00
2022-09-01T05:29:38.946Z,99.22
2022-09-01T05:32:10.461Z,97.47
2022-09-01T05:34:40.100Z,94.62
2022-09-01T05:37:09.139Z,91.49
2022-09-01T05:39:38.777Z,90.42
2022-09-01T05:42:08.859Z,88.69
2022-09-01T05:44:37.053Z,88.54
2022-09-01T05:47:05.664Z,88.20
2022-09-01T05:49:33.467Z,88.76
2022-09-01T05:52:01.007Z,88.74
2022-09-01T05:54:29.721Z,87.82
2022-09-01T05:57:12.622Z,86.42
2022-09-01T05:59:41.722Z,83.75
2022-09-01T06:02:09.585Z,82.75
2022-09-01T06:04:41.431Z,81.11
2022-09-01T06:07:12.638Z,81.42
2022-09-01T06:09:42.587Z,80.81
2022-09-01T06:12:18.368Z,77.77
2022-09-01T06:14:47.407Z,77.22
2022-09-01T06:17:16.924Z,76.25
2022-09-01T06:19:44.713Z,74.85
2022-09-01T06:22:12.426Z,75.73
2022-09-01T06:24:43.947Z,74.06
2022-09-01T06:27:12.937Z,72.87
2022-09-01T06:29:40.221Z,70.50
2022-09-01T06:32:12.854Z,70.43
2022-09-01T06:34:46.351Z,69.90
2022-09-01T06:37:13.694Z,68.47
2022-09-01T06:39:40.659Z,68.65
2022-09-01T06:42:09.784Z,68.51
2022-09-01T06:44:40.697Z,67.42
2022-09-01T06:47:09.347Z,64.28
2022-09-01T06:49:37.241Z,64.70
2022-09-01T06:52:05.851Z,65.23
2022-09-01T06:54:35.155Z,63.09
2022-09-01T06:59:52.596Z,63.58
2022-09-01T07:02:26.423Z,63.60
2022-09-01T07:04:54.283Z,62.31
2022-09-01T07:10:25.737Z,59.45
2022-09-01T07:13:11.865Z,59.42
2022-09-01T07:18:31.945Z,57.97
2022-09-01T07:21:07.383Z,57.93
2022-09-01T07:24:09.005Z,57.74
2022-09-01T07:26:25.681Z,57.82
2022-09-01T07:29:01.649Z,56.85
2022-09-01T07:32:43.805Z,56.72
2022-09-01T07:34:41.664Z,55.19
2022-09-01T07:43:22.729Z,53.56
2022-09-01T07:45:59.746Z,52.36
2022-09-01T07:51:37.684Z,51.66
2022-09-01T07:54:06.314Z,52.24
2022-09-01T07:56:37.577Z,51.21
2022-09-01T07:59:08.512Z,50.09
2022-09-01T08:01:37.603Z,50.32
2022-09-01T08:04:04.756Z,50.29
2022-09-01T08:06:39.336Z,48.56
2022-09-01T08:09:11.479Z,50.61
2022-09-01T08:12:01.199Z,48.31
2022-09-01T08:14:26.723Z,49.63
2022-09-01T08:16:59.198Z,49.07
2022-09-01T08:19:44.102Z,48.05
2022-09-01T08:22:11.187Z,47.42
2022-09-01T08:24:38.419Z,47.61
2022-09-01T08:27:05.562Z,46.26
2022-09-01T08:29:33.502Z,47.48
2022-09-01T08:32:01.222Z,46.18
2022-09-01T08:34:28.468Z,48.09
2022-09-01T08:36:55.507Z,47.41
2022-09-01T08:39:22.537Z,47.06
2022-09-01T08:42:22.132Z,47.89
2022-09-01T08:45:07.292Z,47.71
2022-09-01T08:47:49.276Z,47.25
2022-09-01T08:50:22.521Z,46.90
2022-09-01T08:53:11.268Z,46.50
2022-09-01T08:55:44.533Z,45.35
2022-09-01T08:58:16.003Z,43.94
2022-09-01T09:00:55.098Z,44.92
2022-09-01T09:03:40.558Z,44.52
2022-09-01T09:06:26.378Z,44.54
2022-09-01T09:08:58.211Z,44.11
2022-09-01T09:11:53.571Z,43.92
2022-09-01T09:14:43.135Z,45.60
2022-09-01T09:17:11.301Z,46.25
2022-09-01T09:19:41.657Z,46.89
2022-09-01T09:22:13.248Z,46.47
2022-09-01T09:24:50.526Z,48.98
2022-09-01T09:27:28.043Z,48.18
2022-09-01T09:30:05.699Z,46.81
2022-09-01T09:33:46.701Z,46.46
2022-09-01T09:36:36.663Z,45.46
2022-09-01T09:39:12.535Z,47.05
2022-09-01T09:41:41.776Z,46.84
2022-09-01T09:44:30.247Z,45.95
2022-09-01T09:46:58.044Z,46.87
2022-09-01T09:49:42.254Z,47.25
2022-09-01T09:52:19.359Z,45.98
2022-09-01T09:55:06.915Z,46.15
2022-09-01T09:57:40.215Z,46.36
2022-09-01T10:00:29.768Z,44.84
2022-09-01T10:03:04.684Z,44.92
2022-09-01T10:05:51.881Z,45.57
2022-09-01T10:08:28.443Z,45.78
2022-09-01T10:10:58.153Z,46.23
2022-09-01T10:13:29.386Z,46.00
2022-09-01T10:16:10.490Z,45.49
2022-09-01T10:18:41.828Z,45.52
2022-09-01T10:21:13.900Z,45.99
2022-09-01T10:23:42.128Z,45.77
2022-09-01T10:26:12.222Z,47.13
2022-09-01T10:28:51.602Z,46.68
2022-09-01T10:31:20.767Z,47.23
2022-09-01T10:33:49.064Z,45.51
2022-09-01T10:36:17.347Z,47.16
2022-09-01T10:38:50.323Z,47.08
2022-09-01T10:41:44.075Z,47.89
2022-09-01T10:44:35.786Z,47.17
2022-09-01T10:47:30.413Z,46.87
2022-09-01T10:50:21.830Z,46.43
2022-09-01T10:52:51.360Z,45.52
2022-09-01T10:55:25.472Z,43.69
2022-09-01T11:01:41.066Z,44.50
2022-09-01T11:03:57.981Z,44.39
2022-09-01T11:07:11.559Z,44.12
2022-09-01T11:09:39.087Z,45.64
2022-09-01T11:12:12.030Z,43.58
2022-09-01T11:15:08.225Z,43.40
2022-09-01T11:17:54.730Z,44.33
2022-09-01T11:20:26.833Z,44.90
2022-09-01T11:23:05.615Z,44.37
2022-09-01T11:28:42.147Z,46.49
2022-09-01T11:31:09.136Z,47.36
2022-09-01T11:34:13.523Z,47.96
2022-09-01T11:36:50.111Z,47.89
2022-09-01T11:39:19.021Z,49.92
2022-09-01T11:42:04.712Z,48.21
2022-09-01T11:45:13.263Z,48.50
2022-09-01T11:47:53.008Z,48.98
2022-09-01T11:50:23.776Z,48.68
2022-09-01T11:53:04.911Z,49.57
2022-09-01T11:55:35.555Z,49.86
2022-09-01T11:58:03.115Z,50.84
2022-09-01T12:00:38.615Z,52.20
2022-09-01T12:03:20.856Z,55.36
2022-09-01T12:05:54.846Z,58.30
2022-09-01T12:08:24.105Z,61.62
2022-09-01T12:10:51.629Z,63.52
2022-09-01T12:13:24.307Z,66.32
2022-09-01T12:16:19.445Z,68.85
2022-09-01T12:18:51.664Z,70.85
2022-09-01T12:21:33.134Z,69.83
2022-09-01T12:24:15.271Z,71.75
2022-09-01T12:26:43.771Z,72.27
2022-09-01T12:29:14.086Z,72.77
2022-09-01T12:31:46.034Z,71.72
2022-09-01T12:34:25.489Z,71.08
2022-09-01T12:37:25.550Z,71.51
2022-09-01T12:39:57.582Z,72.45
2022-09-01T12:42:25.284Z,73.25
2022-09-01T12:44:58.359Z,73.67
2022-09-01T12:47:34.409Z,73.75
2022-09-01T12:50:29.641Z,74.99
2022-09-01T12:53:14.054Z,76.72
2022-09-01T12:55:48.694Z,77.55
2022-09-01T12:58:26.099Z,78.06
2022-09-01T13:01:17.398Z,78.16
2022-09-01T13:04:28.818Z,77.38
2022-09-01T13:07:01.061Z,76.69
2022-09-01T13:09:28.580Z,77.73
2022-09-01T13:12:11.678Z,77.94
2022-09-01T13:14:38.807Z,78.31
2022-09-01T13:17:06.227Z,80.89
2022-09-01T13:19:41.103Z,80.20
2022-09-01T13:22:08.098Z,78.09
2022-09-01T13:24:35.599Z,79.12
2022-09-01T13:29:49.599Z,77.56
2022-09-01T13:32:19.143Z,78.19
2022-09-01T13:34:50.491Z,78.08
2022-09-01T13:37:22.361Z,77.93
2022-09-01T13:39:49.950Z,78.63
2022-09-01T13:42:18.400Z,78.08
2022-09-01T13:44:49.660Z,75.71
2022-09-01T13:47:28.946Z,75.39
2022-09-01T13:50:12.592Z,75.52
2022-09-01T13:52:45.891Z,75.07
2022-09-01T13:55:28.530Z,74.72
2022-09-01T13:57:56.218Z,74.84
2022-09-01T14:00:29.475Z,73.45
2022-09-01T14:02:59.853Z,72.82
2022-09-01T14:05:34.014Z,74.22
2022-09-01T14:08:01.991Z,72.05
2022-09-01T14:10:33.532Z,73.51
2022-09-01T14:13:01.420Z,73.07
2022-09-01T14:15:28.420Z,73.17
2022-09-01T14:17:57.630Z,71.70
2022-09-01T14:20:33.386Z,71.80
2022-09-01T14:23:06.822Z,72.78
2022-09-01T14:25:34.878Z,73.11
2022-09-01T14:28:03.422Z,73.10
2022-09-01T14:30:33.056Z,74.21
2022-09-01T14:33:01.364Z,73.79
2022-09-01T14:35:28.975Z,74.16
2022-09-01T14:38:07.672Z,73.82
2022-09-01T14:40:37.681Z,74.64
2022-09-01T14:43:10.638Z,74.11
2022-09-01T14:45:40.245Z,74.18
2022-09-01T14:48:09.317Z,74.22
2022-09-01T14:50:41.602Z,75.16
2022-09-01T14:53:10.054Z,75.99
2022-09-01T14:55:37.115Z,75.78
2022-09-01T14:58:05.995Z,76.60
2022-09-01T15:00:36.062Z,76.86
2022-09-01T15:03:03.766Z,78.08
2022-09-01T15:05:39.826Z,79.25
2022-09-01T15:08:08.709Z,78.42
2022-09-01T15:10:36.887Z,78.10
2022-09-01T15:13:04.576Z,78.09
2022-09-01T15:15:32.504Z,79.17
2022-09-01T15:18:03.010Z,80.00
2022-09-01T15:20:46.877Z,80.57
2022-09-01T15:23:21.572Z,80.51
2022-09-01T15:25:53.960Z,80.71
2022-09-01T15:28:22.897Z,81.20
2022-09-01T15:30:50.342Z,81.05
2022-09-01T15:33:18.824Z,80.24
2022-09-01T15:35:47.127Z,79.66
2022-09-01T15:38:18.681Z,79.07
2022-09-01T15:40:55.266Z,78.12
2022-09-01T15:43:26.178Z,78.02
2022-09-01T15:45:53.284Z,77.45
2022-09-01T15:48:20.610Z,77.82
2022-09-01T15:50:47.777Z,77.53
2022-09-01T15:53:15.056Z,77.83
2022-09-01T15:55:47.126Z,78.19
2022-09-01T15:58:16.547Z,78.04
2022-09-01T16:00:45.382Z,77.07
2022-09-01T16:03:13.150Z,77.43
2022-09-01T16:05:41.254Z,78.33
2022-09-01T16:08:11.692Z,78.17
2022-09-01T16:10:40.272Z,78.27
2022-09-01T16:13:07.455Z,78.19
2022-09-01T16:15:35.701Z,78.89
2022-09-01T16:18:17.797Z,80.28
2022-09-01T16:20:55.428Z,81.13
2022-09-01T16:23:25.429Z,82.13
2022-09-01T16:26:01.313Z,82.98
2022-09-01T16:28:37.355Z,83.41
2022-09-01T16:31:31.847Z,83.08
2022-09-01T16:34:03.909Z,83.75
2022-09-01T16:37:00.057Z,85.06
2022-09-01T16:39:48.725Z,83.06
2022-09-01T16:42:23.011Z,84.38
2022-09-01T16:45:02.332Z,85.35
2022-09-01T16:47:59.307Z,86.33
2022-09-01T16:50:26.118Z,85.87
2022-09-01T16:53:17.846Z,86.45
2022-09-01T16:56:08.312Z,88.25
2022-09-01T16:59:09.269Z,89.57
2022-09-01T17:01:45.586Z,89.24
2022-09-01T17:04:32.027Z,90.08
2022-09-01T17:07:20.108Z,90.29
2022-09-01T17:10:02.766Z,90.15
2022-09-01T17:12:57.006Z,91.47
2022-09-01T17:15:41.227Z,91.85
2022-09-01T17:18:30.533Z,92.15
2022-09-01T17:21:09.028Z,92.54
2022-09-01T17:23:47.010Z,93.55
2022-09-01T17:26:25.699Z,94.17
2022-09-01T17:29:07.231Z,94.45
2022-09-01T17:32:05.111Z,94.93
2022-09-01T17:34:53.796Z,94.68
2022-09-01T17:38:09.735Z,95.56
2022-09-01T17:41:16.273Z,96.55
2022-09-01T17:43:55.715Z,97.36
2022-09-01T17:46:43.963Z,99.09
2022-09-01T17:49:26.598Z,99.14
2022-09-01T17:51:59.393Z,99.92
2022-09-01T17:54:38.622Z,100.00
2022-09-01T17:57:33.182Z,100.00
2022-09-01T18:00:24.087Z,100.00
2022-09-01T18:03:30.993Z,100.00
2022-09-01T18:05:58.887Z,100.00
2022-09-01T18:08:38.580Z,100.00
2022-09-01T18:11:26.815Z,100.00
2022-09-01T18:14:00.343Z,100.00
2022-09-01T18:16:36.855Z,100.00
2022-09-01T18:19:11.993Z,100.00
2022-09-01T18:21:49.470Z,100.00
2022-09-01T18:24:21.792Z,100.00
2022-09-01T18:26:52.333Z,100.00
2022-09-01T18:29:20.447Z,100.00
2022-09-01T18:32:08.644Z,100.00
2022-09-01T18:34:51.185Z,100.00
2022-09-01T18:37:45.074Z,100.00
2022-09-01T18:40:31.790Z,100.00
2022-09-01T18:43:10.005Z,100.00
2022-09-01T18:45:54.899Z,100.00
2022-09-01T18:48:39.396Z,100.00
2022-09-01T18:51:22.598Z,100.00
2022-09-01T18:54:10.305Z,100.00
2022-09-01T18:56:52.713Z,100.00
2022-09-01T18:59:38.441Z,100.00
2022-09-01T19:02:44.379Z,100.00
2022-09-01T19:05:36.973Z,100.00
2022-09-01T19:08:25.064Z,100.00
2022-09-01T19:11:07.852Z,100.00
2022-09-01T19:14:01.591Z,100.00
2022-09-01T19:16:57.008Z,100.00
2022-09-01T19:19:24.159Z,100.00
2022-09-01T19:21:56.295Z,100.00
2022-09-01T19:24:34.198Z,100.00
2022-09-01T19:27:09.502Z,100.00
2022-09-01T19:29:59.203Z,100.00
2022-09-01T19:32:29.778Z,100.00
2022-09-01T19:35:05.525Z,100.00
2022-09-01T19:37:32.819Z,100.00
2022-09-01T19:40:01.172Z,100.00
2022-09-01T19:42:56.165Z,100.00
2022-09-01T19:45:54.135Z,100.00
2022-09-01T19:48:28.781Z,100.00
2022-09-01T19:51:01.099Z,100.00
2022-09-01T19:54:01.757Z,100.00
2022-09-01T19:56:39.787Z,100.00
2022-09-01T19:59:14.607Z,100.00
2022-09-01T20:01:47.878Z,100.00
2022-09-01T20:04:39.793Z,100.00
2022-09-01T20:07:14.516Z,100.00
2022-09-01T20:09:54.688Z,100.00
2022-09-01T20:12:24.637Z,100.00
2022-09-01T20:15:04.238Z,100.00
2022-09-01T20:17:33.863Z,100.00
2022-09-01T20:20:26.239Z,100.00
2022-09-01T20:23:04.260Z,100.00
2022-09-01T20:25:42.343Z,100.00
2022-09-01T20:28:27.677Z,100.00
2022-09-01T20:31:14.810Z,100.00
2022-09-01T20:33:56.944Z,100.00
2022-09-01T20:36:43.843Z,100.00
2022-09-01T20:39:41.383Z,100.00
2022-09-01T20:42:36.046Z,100.00
2022-09-01T20:45:17.862Z,100.00
2022-09-01T20:47:54.188Z,100.00
2022-09-01T20:50:35.191Z,100.00
2022-09-01T20:53:27.884Z,100.00
2022-09-01T20:56:24.681Z,100.00
2022-09-01T20:59:02.132Z,100.00
2022-09-01T21:02:05.099Z,100.00
2022-09-01T21:04:57.095Z,100.00
2022-09-01T21:07:33.482Z,100.00
2022-09-01T21:10:15.655Z,100.00
2022-09-01T21:12:51.369Z,100.00
2022-09-01T21:15:33.706Z,100.00
2022-09-01T21:18:21.643Z,100.00
2022-09-01T21:20:54.770Z,100.00
2022-09-01T21:23:21.931Z,100.00
2022-09-01T21:25:50.316Z,100.00
2022-09-01T21:28:20.463Z,100.00
2022-09-01T21:30:55.320Z,100.00
2022-09-01T21:33:23.684Z,100.00
2022-09-01T21:35:52.721Z,100.00
2022-09-01T21:38:19.873Z,100.00
2022-09-01T21:40:48.298Z,100.00
2022-09-01T21:43:25.633Z,100.00
2022-09-01T21:45:52.953Z,100.00
2022-09-01T21:48:20.140Z,100.00
2022-09-01T21:50:47.966Z,100.00
2022-09-01T21:53:15.266Z,100.00
2022-09-01T21:55:42.568Z,100.00
2022-09-01T21:58:10.418Z,100.00
2022-09-01T22:00:43.701Z,100.00
2022-09-01T22:03:12.558Z,100.00
2022-09-01T22:05:42.051Z,100.00
2022-09-01T22:08:12.437Z,100.00
2022-09-01T22:10:49.631Z,100.00
2022-09-01T22:13:18.281Z,100.00
2022-09-01T22:15:49.149Z,100.00
2022-09-01T22:18:17.603Z,100.00
2022-09-01T22:20:46.233Z,100.00
2022-09-01T22:23:15.474Z,100.00
2022-09-01T22:25:44.844Z,100.00
2022-09-01T22:28:12.961Z,100.00
2022-09-01T22:30:51.287Z,100.00
2022-09-01T22:33:20.117Z,100.00
2022-09-01T22:35:52.895Z,100.00
2022-09-01T22:38:22.001Z,100.00
2022-09-01T22:40:55.600Z,100.00
2022-09-01T22:43:24.525Z,100.00
2022-09-01T22:45:52.303Z,100.00
2022-09-01T22:48:22.875Z,100.00
2022-09-01T22:50:51.246Z,100.00
2022-09-01T22:53:20.262Z,100.00
2022-09-01T22:55:51.240Z,100.00
2022-09-01T22:58:18.991Z,100.00
2022-09-01T23:00:48.299Z,100.00
2022-09-01T23:03:16.213Z,100.00
2022-09-01T23:05:44.332Z,100.00
2022-09-01T23:08:12.271Z,100.00
2022-09-01T23:10:39.920Z,100.00
2022-09-01T23:13:07.624Z,100.00
2022-09-01T23:15:34.716Z,100.00
2022-09-01T23:18:01.879Z,100.00
2022-09-01T23:20:29.127Z,100.00
2022-09-01T23:22:56.592Z,100.00
2022-09-01T23:25:24.870Z,100.00
2022-09-01T23:27:51.986Z,100.00
2022-09-01T23:30:19.283Z,100.00
2022-09-01T23:32:46.427Z,100.00
2022-09-01T23:35:13.736Z,100.00
2022-09-01T23:37:43.564Z,100.00
2022-09-01T23:40:11.051Z,100.00
2022-09-01T23:42:38.565Z,100.00
2022-09-01T23:45:06.266Z,100.00
2022-09-01T23:47:33.420Z,100.00
2022-09-01T23:50:00.551Z,100.00
2022-09-01T23:52:27.592Z,100.00
2022-09-01T23:54:54.907Z,100.00
2022-09-01T23:57:22.162Z,100.00
2022-09-01T23:59:49.516Z,100.00
